createdAt,value
2022-10-19T05:29:27.145Z,80.51
2022-10-19T05:31:56.125Z,80.58
2022-10-19T05:43:39.248Z,81.15
2022-10-19T05:46:10.754Z,81.38
2022-10-19T05:48:40.653Z,81.94
2022-10-19T05:51:12.279Z,82.58
2022-10-19T05:53:40.911Z,83.09
2022-10-19T05:56:19.570Z,83.07
2022-10-19T05:58:52.850Z,82.65
2022-10-19T06:01:22.228Z,82.89
2022-10-19T06:03:59.070Z,82.93
2022-10-19T06:06:29.624Z,82.86
2022-10-19T06:08:59.596Z,82.58
2022-10-19T06:11:35.822Z,82.13
2022-10-19T06:14:15.519Z,82.28
2022-10-19T06:16:43.569Z,81.92
2022-10-19T06:19:11.469Z,82.36
2022-10-19T06:21:41.906Z,82.54
2022-10-19T06:24:18.394Z,83.09
2022-10-19T06:26:46.889Z,82.93
2022-10-19T06:29:15.423Z,84.09
2022-10-19T06:31:49.720Z,84.54
2022-10-19T06:34:17.495Z,84.04
2022-10-19T06:36:46.554Z,84.22
2022-10-19T06:39:14.431Z,84.26
2022-10-19T06:41:42.484Z,84.75
2022-10-19T06:44:12.286Z,84.51
2022-10-19T06:46:41.770Z,84.10
2022-10-19T06:49:15.062Z,84.63
2022-10-19T06:51:42.653Z,84.93
2022-10-19T06:54:10.175Z,85.03
2022-10-19T06:56:37.889Z,84.35
2022-10-19T06:59:07.759Z,84.26
2022-10-19T07:01:35.337Z,85.22
2022-10-19T07:04:03.024Z,85.24
2022-10-19T07:06:30.973Z,85.01
2022-10-19T07:09:01.980Z,84.99
2022-10-19T07:11:30.515Z,84.77
2022-10-19T08:22:55.042Z,82.75
2022-10-19T08:25:25.747Z,84.67
2022-10-19T08:28:00.495Z,85.08
2022-10-19T08:30:39.911Z,82.64
2022-10-19T08:33:09.101Z,82.63
2022-10-19T08:35:37.979Z,81.34
2022-10-19T08:38:08.463Z,80.71
2022-10-19T08:40:42.387Z,81.08
2022-10-19T08:43:24.746Z,79.32
2022-10-19T08:46:30.531Z,77.20
2022-10-19T08:49:01.787Z,79.20
2022-10-19T08:51:36.603Z,81.87
2022-10-19T08:54:15.755Z,77.28
2022-10-19T08:57:01.691Z,76.11
2022-10-19T09:00:03.424Z,78.41
2022-10-19T09:03:00.201Z,78.31
2022-10-19T09:06:13.989Z,76.98
2022-10-19T09:08:45.389Z,74.63
2022-10-19T09:11:17.464Z,75.23
2022-10-19T09:14:04.858Z,73.75
2022-10-19T09:25:33.317Z,73.75
2022-10-19T09:29:01.958Z,72.18
2022-10-19T09:31:40.844Z,72.70
2022-10-19T09:34:38.058Z,72.18
2022-10-19T09:37:05.886Z,70.88
2022-10-19T09:39:33.690Z,68.85
2022-10-19T09:42:22.352Z,69.09
2022-10-19T09:44:56.848Z,71.67
2022-10-19T09:50:28.972Z,72.02
2022-10-19T11:17:24.561Z,60.57
2022-10-19T11:32:42.687Z,60.04
2022-10-19T11:35:26.141Z,57.34
2022-10-19T11:38:30.317Z,57.74
2022-10-19T11:41:19.605Z,57.29
2022-10-19T11:44:05.434Z,55.76
2022-10-19T11:47:11.219Z,54.52
2022-10-19T11:49:44.439Z,56.35
2022-10-19T11:52:38.056Z,55.57
2022-10-19T11:55:39.574Z,56.49
2022-10-19T11:58:32.382Z,55.16
2022-10-19T12:01:54.729Z,55.76
2022-10-19T12:19:40.067Z,56.28
2022-10-19T12:22:20.896Z,54.57
2022-10-19T12:24:51.527Z,56.85
2022-10-19T12:57:56.252Z,57.10
2022-10-19T13:57:39.111Z,54.43
2022-10-19T14:00:34.578Z,55.15
2022-10-19T16:01:00.187Z,53.27
